sensor_id;sensor_type;location;lat;lon;timestamp;pressure;altitude;pressure_sealevel;temperature;humidity
21357;BME280;10836;53.068;18.234;2022-10-16T00:00:57;100872.88;;;13.45;100.00
21357;BME280;10836;53.068;18.234;2022-10-16T00:03:41;100877.97;;;13.27;100.00
21357;BME280;10836;53.068;18.234;2022-10-16T00:06:10;100877.75;;;13.19;100.00
21357;BME280;10836;53.068;18.234;2022-10-16T00:08:38;100885.91;;;13.29;100.00
21357;BME280;10836;53.068;18.234;2022-10-16T00:11:11;100885.72;;;13.15;100.00
21357;BME280;10836;53.068;18.234;2022-10-16T00:13:40;100892.94;;;13.01;100.00
21357;BME280;10836;53.068;18.234;2022-10-16T00:16:08;100887.00;;;12.89;100.00
21357;BME280;10836;53.068;18.234;2022-10-16T00:18:36;100886.69;;;12.95;100.00
21357;BME280;10836;53.068;18.234;2022-10-16T00:21:05;100885.94;;;12.85;100.00
21357;BME280;10836;53.068;18.234;2022-10-16T00:23:33;100901.88;;;12.78;100.00
21357;BME280;10836;53.068;18.234;2022-10-16T00:26:06;100893.66;;;12.78;100.00
21357;BME280;10836;53.068;18.234;2022-10-16T00:28:34;100896.19;;;12.64;100.00
21357;BME280;10836;53.068;18.234;2022-10-16T00:31:06;100891.03;;;12.57;100.00
21357;BME280;10836;53.068;18.234;2022-10-16T00:33:33;100883.94;;;12.51;100.00
21357;BME280;10836;53.068;18.234;2022-10-16T00:36:02;100886.63;;;12.56;100.00
21357;BME280;10836;53.068;18.234;2022-10-16T00:38:29;100894.94;;;12.46;100.00
21357;BME280;10836;53.068;18.234;2022-10-16T00:40:56;100901.81;;;12.33;100.00
21357;BME280;10836;53.068;18.234;2022-10-16T00:46:14;100894.38;;;12.44;100.00
21357;BME280;10836;53.068;18.234;2022-10-16T00:48:46;100890.28;;;12.47;100.00
21357;BME280;10836;53.068;18.234;2022-10-16T00:51:15;100885.06;;;12.50;100.00
21357;BME280;10836;53.068;18.234;2022-10-16T00:53:43;100891.06;;;12.52;100.00
21357;BME280;10836;53.068;18.234;2022-10-16T00:56:10;100888.34;;;12.52;100.00
21357;BME280;10836;53.068;18.234;2022-10-16T00:58:37;100883.41;;;12.54;100.00
21357;BME280;10836;53.068;18.234;2022-10-16T01:01:04;100885.53;;;12.57;100.00
21357;BME280;10836;53.068;18.234;2022-10-16T01:03:34;100878.94;;;12.63;100.00
21357;BME280;10836;53.068;18.234;2022-10-16T01:06:21;100878.38;;;12.66;100.00
21357;BME280;10836;53.068;18.234;2022-10-16T01:14:04;100903.56;;;12.69;100.00
21357;BME280;10836;53.068;18.234;2022-10-16T01:16:51;100900.22;;;12.77;100.00
21357;BME280;10836;53.068;18.234;2022-10-16T01:19:49;100906.78;;;12.81;100.00
21357;BME280;10836;53.068;18.234;2022-10-16T01:22:19;100913.41;;;12.75;100.00
21357;BME280;10836;53.068;18.234;2022-10-16T01:24:49;100909.03;;;12.69;100.00
21357;BME280;10836;53.068;18.234;2022-10-16T01:27:28;100907.09;;;12.74;100.00
21357;BME280;10836;53.068;18.234;2022-10-16T01:30:28;100903.75;;;12.82;100.00
21357;BME280;10836;53.068;18.234;2022-10-16T01:32:57;100904.69;;;12.62;100.00
21357;BME280;10836;53.068;18.234;2022-10-16T01:36:02;100905.72;;;12.77;100.00
21357;BME280;10836;53.068;18.234;2022-10-16T01:38:39;100904.63;;;12.73;100.00
21357;BME280;10836;53.068;18.234;2022-10-16T01:41:14;100910.63;;;12.80;100.00
21357;BME280;10836;53.068;18.234;2022-10-16T01:43:47;100906.53;;;12.77;100.00
21357;BME280;10836;53.068;18.234;2022-10-16T01:46:17;100907.38;;;12.73;100.00
21357;BME280;10836;53.068;18.234;2022-10-16T01:48:47;100908.19;;;12.73;100.00
21357;BME280;10836;53.068;18.234;2022-10-16T01:51:16;100904.34;;;12.79;100.00
21357;BME280;10836;53.068;18.234;2022-10-16T01:53:48;100904.06;;;12.76;100.00
21357;BME280;10836;53.068;18.234;2022-10-16T01:56:18;100912.56;;;12.79;100.00
21357;BME280;10836;53.068;18.234;2022-10-16T01:59:10;100912.00;;;12.77;100.00
21357;BME280;10836;53.068;18.234;2022-10-16T02:01:40;100902.41;;;12.80;100.00
21357;BME280;10836;53.068;18.234;2022-10-16T02:04:21;100906.81;;;12.76;100.00
21357;BME280;10836;53.068;18.234;2022-10-16T02:06:50;100904.59;;;12.83;100.00
21357;BME280;10836;53.068;18.234;2022-10-16T02:09:18;100904.59;;;12.83;100.00
21357;BME280;10836;53.068;18.234;2022-10-16T02:11:46;100903.50;;;12.79;100.00
21357;BME280;10836;53.068;18.234;2022-10-16T02:14:13;100893.25;;;12.55;100.00
21357;BME280;10836;53.068;18.234;2022-10-16T02:16:45;100900.84;;;12.63;100.00
21357;BME280;10836;53.068;18.234;2022-10-16T02:19:15;100901.75;;;12.54;100.00
21357;BME280;10836;53.068;18.234;2022-10-16T02:21:51;100903.41;;;12.50;100.00
21357;BME280;10836;53.068;18.234;2022-10-16T02:24:28;100894.13;;;12.41;100.00
21357;BME280;10836;53.068;18.234;2022-10-16T02:27:17;100911.38;;;12.46;100.00
21357;BME280;10836;53.068;18.234;2022-10-16T02:29:52;100904.00;;;12.42;100.00
21357;BME280;10836;53.068;18.234;2022-10-16T02:32:30;100910.84;;;12.39;100.00
21357;BME280;10836;53.068;18.234;2022-10-16T02:34:58;100902.69;;;12.24;100.00
21357;BME280;10836;53.068;18.234;2022-10-16T02:37:27;100903.25;;;12.16;100.00
21357;BME280;10836;53.068;18.234;2022-10-16T02:39:56;100896.94;;;12.20;100.00
21357;BME280;10836;53.068;18.234;2022-10-16T02:42:35;100907.88;;;12.30;100.00
21357;BME280;10836;53.068;18.234;2022-10-16T02:45:04;100908.66;;;12.41;100.00
21357;BME280;10836;53.068;18.234;2022-10-16T02:47:31;100910.84;;;12.39;100.00
21357;BME280;10836;53.068;18.234;2022-10-16T02:49:58;100913.56;;;12.44;100.00
21357;BME280;10836;53.068;18.234;2022-10-16T02:52:25;100920.13;;;12.43;100.00
21357;BME280;10836;53.068;18.234;2022-10-16T02:54:53;100906.97;;;12.50;100.00
21357;BME280;10836;53.068;18.234;2022-10-16T02:57:20;100908.09;;;12.44;100.00
21357;BME280;10836;53.068;18.234;2022-10-16T02:59:47;100900.38;;;12.51;100.00
21357;BME280;10836;53.068;18.234;2022-10-16T03:02:14;100900.94;;;12.53;100.00
21357;BME280;10836;53.068;18.234;2022-10-16T03:04:41;100895.94;;;12.60;100.00
21357;BME280;10836;53.068;18.234;2022-10-16T03:07:08;100899.75;;;12.64;100.00
21357;BME280;10836;53.068;18.234;2022-10-16T03:09:34;100901.94;;;12.68;100.00
21357;BME280;10836;53.068;18.234;2022-10-16T03:12:02;100894.53;;;12.68;100.00
21357;BME280;10836;53.068;18.234;2022-10-16T03:14:29;100900.28;;;12.66;100.00
21357;BME280;10836;53.068;18.234;2022-10-16T03:16:55;100896.72;;;12.66;100.00
21357;BME280;10836;53.068;18.234;2022-10-16T03:19:22;100892.56;;;12.74;100.00
21357;BME280;10836;53.068;18.234;2022-10-16T03:21:49;100898.59;;;12.76;100.00
21357;BME280;10836;53.068;18.234;2022-10-16T03:24:16;100893.16;;;12.71;100.00
21357;BME280;10836;53.068;18.234;2022-10-16T03:26:43;100901.38;;;12.71;100.00
21357;BME280;10836;53.068;18.234;2022-10-16T03:29:10;100907.34;;;12.78;100.00
21357;BME280;10836;53.068;18.234;2022-10-16T03:31:37;100896.97;;;12.70;100.00
21357;BME280;10836;53.068;18.234;2022-10-16T03:34:04;100900.25;;;12.72;100.00
21357;BME280;10836;53.068;18.234;2022-10-16T03:36:31;100906.50;;;12.82;100.00
21357;BME280;10836;53.068;18.234;2022-10-16T03:38:58;100901.88;;;12.78;100.00
21357;BME280;10836;53.068;18.234;2022-10-16T03:41:25;100909.53;;;12.81;100.00
21357;BME280;10836;53.068;18.234;2022-10-16T03:43:51;100911.72;;;12.84;100.00
21357;BME280;10836;53.068;18.234;2022-10-16T03:46:18;100913.91;;;12.82;100.00
21357;BME280;10836;53.068;18.234;2022-10-16T03:48:45;100921.53;;;12.90;100.00
21357;BME280;10836;53.068;18.234;2022-10-16T03:51:12;100922.66;;;12.84;100.00
21357;BME280;10836;53.068;18.234;2022-10-16T03:53:39;100925.38;;;12.89;100.00
21357;BME280;10836;53.068;18.234;2022-10-16T03:56:06;100919.91;;;12.89;100.00
21357;BME280;10836;53.068;18.234;2022-10-16T03:58:33;100926.94;;;13.00;100.00
21357;BME280;10836;53.068;18.234;2022-10-16T04:01:00;100934.59;;;13.03;100.00
21357;BME280;10836;53.068;18.234;2022-10-16T04:03:27;100935.13;;;13.05;100.00
21357;BME280;10836;53.068;18.234;2022-10-16T04:05:54;100943.88;;;13.07;100.00
21357;BME280;10836;53.068;18.234;2022-10-16T04:08:21;100941.44;;;13.06;100.00
21357;BME280;10836;53.068;18.234;2022-10-16T04:10:48;100943.16;;;12.96;100.00
21357;BME280;10836;53.068;18.234;2022-10-16T04:13:14;100947.81;;;12.96;100.00
21357;BME280;10836;53.068;18.234;2022-10-16T04:15:42;100948.38;;;12.93;100.00
21357;BME280;10836;53.068;18.234;2022-10-16T04:18:09;100941.25;;;12.92;100.00
21357;BME280;10836;53.068;18.234;2022-10-16T04:20:36;100931.44;;;12.86;100.00
21357;BME280;10836;53.068;18.234;2022-10-16T04:23:02;100933.06;;;12.87;100.00
21357;BME280;10836;53.068;18.234;2022-10-16T04:25:30;100930.28;;;12.92;100.00
21357;BME280;10836;53.068;18.234;2022-10-16T04:27:56;100923.78;;;12.78;100.00
21357;BME280;10836;53.068;18.234;2022-10-16T04:30:24;100934.81;;;12.68;100.00
21357;BME280;10836;53.068;18.234;2022-10-16T04:32:51;100930.63;;;12.80;100.00
21357;BME280;10836;53.068;18.234;2022-10-16T04:35:19;100940.13;;;12.98;100.00
21357;BME280;10836;53.068;18.234;2022-10-16T04:37:47;100952.78;;;12.89;100.00
21357;BME280;10836;53.068;18.234;2022-10-16T04:40:14;100957.06;;;13.05;100.00
21357;BME280;10836;53.068;18.234;2022-10-16T04:42:41;100943.69;;;12.98;100.00
21357;BME280;10836;53.068;18.234;2022-10-16T04:45:08;100952.19;;;12.97;100.00
21357;BME280;10836;53.068;18.234;2022-10-16T04:47:40;100963.69;;;12.99;100.00
21357;BME280;10836;53.068;18.234;2022-10-16T04:50:07;100962.28;;;13.02;100.00
21357;BME280;10836;53.068;18.234;2022-10-16T04:52:34;100964.53;;;12.99;100.00
21357;BME280;10836;53.068;18.234;2022-10-16T04:55:06;100965.91;;;12.97;100.00
21357;BME280;10836;53.068;18.234;2022-10-16T04:57:33;100958.78;;;12.96;100.00
21357;BME280;10836;53.068;18.234;2022-10-16T05:00:00;100960.44;;;12.92;100.00
21357;BME280;10836;53.068;18.234;2022-10-16T05:02:27;100969.75;;;12.96;100.00
21357;BME280;10836;53.068;18.234;2022-10-16T05:04:54;100968.66;;;12.97;100.00
21357;BME280;10836;53.068;18.234;2022-10-16T05:07:21;100974.13;;;12.97;100.00
21357;BME280;10836;53.068;18.234;2022-10-16T05:09:48;100976.00;;;13.02;100.00
21357;BME280;10836;53.068;18.234;2022-10-16T05:12:15;100975.50;;;12.99;100.00
21357;BME280;10836;53.068;18.234;2022-10-16T05:14:42;100973.06;;;12.93;100.00
21357;BME280;10836;53.068;18.234;2022-10-16T05:17:09;100974.66;;;12.99;100.00
21357;BME280;10836;53.068;18.234;2022-10-16T05:19:36;100985.56;;;13.04;100.00
21357;BME280;10836;53.068;18.234;2022-10-16T05:22:03;100977.06;;;13.06;100.00
21357;BME280;10836;53.068;18.234;2022-10-16T05:24:29;100989.66;;;13.12;100.00
21357;BME280;10836;53.068;18.234;2022-10-16T05:26:56;100986.94;;;13.07;100.00
21357;BME280;10836;53.068;18.234;2022-10-16T05:29:23;100983.66;;;13.05;100.00
21357;BME280;10836;53.068;18.234;2022-10-16T05:31:52;100993.22;;;13.07;100.00
21357;BME280;10836;53.068;18.234;2022-10-16T05:34:20;100990.53;;;13.02;100.00
21357;BME280;10836;53.068;18.234;2022-10-16T05:36:47;100980.44;;;12.92;100.00
21357;BME280;10836;53.068;18.234;2022-10-16T05:39:15;100987.88;;;12.87;100.00
21357;BME280;10836;53.068;18.234;2022-10-16T05:41:43;100996.63;;;12.89;100.00
21357;BME280;10836;53.068;18.234;2022-10-16T05:44:10;100997.22;;;12.81;100.00
21357;BME280;10836;53.068;18.234;2022-10-16T05:46:37;101004.34;;;12.82;100.00
21357;BME280;10836;53.068;18.234;2022-10-16T05:49:04;101013.91;;;12.89;100.00
21357;BME280;10836;53.068;18.234;2022-10-16T05:51:31;101022.66;;;12.91;100.00
21357;BME280;10836;53.068;18.234;2022-10-16T05:53:58;101024.56;;;12.96;100.00
21357;BME280;10836;53.068;18.234;2022-10-16T05:56:25;101028.13;;;12.96;100.00
21357;BME280;10836;53.068;18.234;2022-10-16T05:58:52;101034.06;;;13.09;100.00
21357;BME280;10836;53.068;18.234;2022-10-16T06:01:19;101026.94;;;13.13;100.00
21357;BME280;10836;53.068;18.234;2022-10-16T06:03:51;101020.63;;;13.12;100.00
21357;BME280;10836;53.068;18.234;2022-10-16T06:06:21;101003.91;;;13.09;100.00
21357;BME280;10836;53.068;18.234;2022-10-16T06:08:48;101011.81;;;13.25;100.00
21357;BME280;10836;53.068;18.234;2022-10-16T06:11:24;101015.63;;;13.29;100.00
21357;BME280;10836;53.068;18.234;2022-10-16T06:13:53;101006.06;;;13.22;100.00
21357;BME280;10836;53.068;18.234;2022-10-16T06:16:20;101022.16;;;13.39;100.00
21357;BME280;10836;53.068;18.234;2022-10-16T06:18:47;101019.78;;;13.61;100.00
21357;BME280;10836;53.068;18.234;2022-10-16T06:21:18;101015.22;;;13.85;100.00
21357;BME280;10836;53.068;18.234;2022-10-16T06:23:46;101032.09;;;13.97;100.00
21357;BME280;10836;53.068;18.234;2022-10-16T06:26:16;101028.28;;;14.27;100.00
21357;BME280;10836;53.068;18.234;2022-10-16T06:28:43;101032.59;;;14.05;100.00
21357;BME280;10836;53.068;18.234;2022-10-16T06:31:11;101035.84;;;14.12;100.00
21357;BME280;10836;53.068;18.234;2022-10-16T06:33:39;101032.06;;;14.03;100.00
21357;BME280;10836;53.068;18.234;2022-10-16T06:36:12;101035.19;;;13.91;100.00
21357;BME280;10836;53.068;18.234;2022-10-16T06:38:40;101038.78;;;13.86;100.00
21357;BME280;10836;53.068;18.234;2022-10-16T06:41:09;101039.47;;;13.73;100.00
21357;BME280;10836;53.068;18.234;2022-10-16T06:43:37;101036.56;;;13.88;100.00
21357;BME280;10836;53.068;18.234;2022-10-16T06:46:06;101043.47;;;13.86;100.00
21357;BME280;10836;53.068;18.234;2022-10-16T06:48:34;101042.56;;;13.95;100.00
21357;BME280;10836;53.068;18.234;2022-10-16T06:51:08;101039.28;;;13.93;100.00
21357;BME280;10836;53.068;18.234;2022-10-16T06:53:38;101044.78;;;13.93;100.00
21357;BME280;10836;53.068;18.234;2022-10-16T06:56:27;101046.25;;;14.15;100.00
21357;BME280;10836;53.068;18.234;2022-10-16T06:58:54;101051.44;;;14.16;100.00
21357;BME280;10836;53.068;18.234;2022-10-16T07:01:23;101062.88;;;14.28;100.00
21357;BME280;10836;53.068;18.234;2022-10-16T07:03:51;101058.06;;;14.39;100.00
21357;BME280;10836;53.068;18.234;2022-10-16T07:06:20;101048.19;;;14.43;100.00
21357;BME280;10836;53.068;18.234;2022-10-16T07:08:48;101045.59;;;14.76;100.00
21357;BME280;10836;53.068;18.234;2022-10-16T07:11:17;101056.88;;;14.74;100.00
21357;BME280;10836;53.068;18.234;2022-10-16T07:13:46;101058.81;;;14.74;100.00
21357;BME280;10836;53.068;18.234;2022-10-16T07:16:26;101062.69;;;14.96;100.00
21357;BME280;10836;53.068;18.234;2022-10-16T07:18:54;101068.13;;;15.20;100.00
21357;BME280;10836;53.068;18.234;2022-10-16T07:21:28;101061.00;;;15.19;100.00
21357;BME280;10836;53.068;18.234;2022-10-16T07:23:58;101061.19;;;15.47;100.00
21357;BME280;10836;53.068;18.234;2022-10-16T07:26:27;101065.81;;;15.70;100.00
21357;BME280;10836;53.068;18.234;2022-10-16T07:28:54;101067.34;;;16.27;100.00
21357;BME280;10836;53.068;18.234;2022-10-16T07:31:22;101073.97;;;16.73;100.00
21357;BME280;10836;53.068;18.234;2022-10-16T07:33:50;101070.91;;;16.88;100.00
21357;BME280;10836;53.068;18.234;2022-10-16T07:36:19;101071.28;;;17.72;100.00
21357;BME280;10836;53.068;18.234;2022-10-16T07:38:46;101074.75;;;18.93;93.07
21357;BME280;10836;53.068;18.234;2022-10-16T07:41:16;101082.16;;;19.23;88.93
21357;BME280;10836;53.068;18.234;2022-10-16T07:43:50;101086.63;;;20.19;83.85
21357;BME280;10836;53.068;18.234;2022-10-16T07:46:19;101084.53;;;19.90;84.74
21357;BME280;10836;53.068;18.234;2022-10-16T07:48:46;101098.03;;;19.57;87.68
21357;BME280;10836;53.068;18.234;2022-10-16T07:51:17;101092.66;;;19.96;85.78
21357;BME280;10836;53.068;18.234;2022-10-16T07:53:44;101098.56;;;19.77;86.03
21357;BME280;10836;53.068;18.234;2022-10-16T07:56:12;101106.19;;;18.35;92.43
21357;BME280;10836;53.068;18.234;2022-10-16T07:58:39;101108.50;;;17.75;98.07
21357;BME280;10836;53.068;18.234;2022-10-16T08:01:08;101117.53;;;17.53;100.00
21357;BME280;10836;53.068;18.234;2022-10-16T08:03:36;101114.72;;;17.31;100.00
21357;BME280;10836;53.068;18.234;2022-10-16T08:06:03;101113.69;;;16.99;100.00
21357;BME280;10836;53.068;18.234;2022-10-16T08:08:31;101113.84;;;16.61;100.00
21357;BME280;10836;53.068;18.234;2022-10-16T08:10:58;101103.06;;;16.46;100.00
21357;BME280;10836;53.068;18.234;2022-10-16T08:13:25;101108.41;;;16.56;100.00
21357;BME280;10836;53.068;18.234;2022-10-16T08:15:53;101105.13;;;16.87;100.00
21357;BME280;10836;53.068;18.234;2022-10-16T08:18:20;101108.19;;;17.26;100.00
21357;BME280;10836;53.068;18.234;2022-10-16T08:20:48;101106.59;;;17.48;100.00
21357;BME280;10836;53.068;18.234;2022-10-16T08:23:15;101119.06;;;17.95;99.92
21357;BME280;10836;53.068;18.234;2022-10-16T08:25:41;101120.19;;;17.58;100.00
21357;BME280;10836;53.068;18.234;2022-10-16T08:28:10;101130.31;;;18.43;96.78
21357;BME280;10836;53.068;18.234;2022-10-16T08:30:37;101120.72;;;18.72;94.66
21357;BME280;10836;53.068;18.234;2022-10-16T08:33:04;101135.31;;;18.64;93.01
21357;BME280;10836;53.068;18.234;2022-10-16T08:35:33;101137.47;;;18.22;95.58
21357;BME280;10836;53.068;18.234;2022-10-16T08:38:03;101137.94;;;18.69;94.32
21357;BME280;10836;53.068;18.234;2022-10-16T08:40:31;101133.75;;;18.49;94.12
21357;BME280;10836;53.068;18.234;2022-10-16T08:46:19;101110.28;;;19.00;89.12
21357;BME280;10836;53.068;18.234;2022-10-16T08:48:53;101121.34;;;18.69;91.57
21357;BME280;10836;53.068;18.234;2022-10-16T08:51:26;101120.66;;;19.51;86.28
21357;BME280;10836;53.068;18.234;2022-10-16T08:54:31;101130.03;;;19.89;84.86
21357;BME280;10836;53.068;18.234;2022-10-16T08:57:10;101129.66;;;20.98;79.05
21357;BME280;10836;53.068;18.234;2022-10-16T08:59:38;101134.06;;;20.18;83.13
21357;BME280;10836;53.068;18.234;2022-10-16T09:02:33;101132.69;;;18.89;89.87
21357;BME280;10836;53.068;18.234;2022-10-16T09:08:19;101127.97;;;18.37;94.22
21357;BME280;10836;53.068;18.234;2022-10-16T09:11:22;101115.00;;;18.15;94.43
21357;BME280;10836;53.068;18.234;2022-10-16T09:16:44;101113.69;;;18.12;96.34
21357;BME280;10836;53.068;18.234;2022-10-16T09:19:27;101129.19;;;18.00;97.49
21357;BME280;10836;53.068;18.234;2022-10-16T09:21:59;101136.91;;;18.34;94.54
21357;BME280;10836;53.068;18.234;2022-10-16T09:24:29;101145.13;;;18.70;94.30
21357;BME280;10836;53.068;18.234;2022-10-16T09:26:56;101138.34;;;18.53;93.62
21357;BME280;10836;53.068;18.234;2022-10-16T09:29:23;101142.38;;;18.47;93.69
21357;BME280;10836;53.068;18.234;2022-10-16T09:31:53;101151.16;;;18.49;94.12
21357;BME280;10836;53.068;18.234;2022-10-16T09:34:32;101156.81;;;18.67;94.58
21357;BME280;10836;53.068;18.234;2022-10-16T09:37:04;101146.25;;;18.46;95.92
21357;BME280;10836;53.068;18.234;2022-10-16T09:39:53;101148.38;;;18.72;94.88
21357;BME280;10836;53.068;18.234;2022-10-16T09:42:32;101154.38;;;18.65;93.10
21357;BME280;10836;53.068;18.234;2022-10-16T09:45:01;101150.66;;;18.47;94.75
21357;BME280;10836;53.068;18.234;2022-10-16T09:47:29;101142.88;;;18.49;95.75
21357;BME280;10836;53.068;18.234;2022-10-16T09:49:59;101141.25;;;18.48;95.35
21357;BME280;10836;53.068;18.234;2022-10-16T09:52:29;101147.03;;;18.60;94.54
21357;BME280;10836;53.068;18.234;2022-10-16T09:55:17;101151.09;;;18.41;95.14
21357;BME280;10836;53.068;18.234;2022-10-16T09:57:52;101144.88;;;18.35;96.12
21357;BME280;10836;53.068;18.234;2022-10-16T10:00:21;101154.56;;;18.24;96.45
21357;BME280;10836;53.068;18.234;2022-10-16T10:02:48;101152.81;;;18.06;97.65
21357;BME280;10836;53.068;18.234;2022-10-16T10:05:34;101147.84;;;18.16;97.05
21357;BME280;10836;53.068;18.234;2022-10-16T10:08:02;101150.91;;;18.59;94.97
21357;BME280;10836;53.068;18.234;2022-10-16T10:10:39;101156.56;;;18.77;93.89
21357;BME280;10836;53.068;18.234;2022-10-16T10:13:19;101160.91;;;19.00;90.03
21357;BME280;10836;53.068;18.234;2022-10-16T10:15:47;101163.31;;;19.33;88.83
21357;BME280;10836;53.068;18.234;2022-10-16T10:18:16;101161.75;;;19.57;89.89
21357;BME280;10836;53.068;18.234;2022-10-16T10:20:44;101162.75;;;19.70;87.74
21357;BME280;10836;53.068;18.234;2022-10-16T10:23:22;101162.72;;;19.53;88.12
21357;BME280;10836;53.068;18.234;2022-10-16T10:25:56;101168.25;;;19.53;86.61
21357;BME280;10836;53.068;18.234;2022-10-16T10:31:14;101166.44;;;19.00;89.71
21357;BME280;10836;53.068;18.234;2022-10-16T10:39:00;101161.44;;;18.80;91.47
21357;BME280;10836;53.068;18.234;2022-10-16T10:55:14;101180.50;;;19.21;90.13
21357;BME280;10836;53.068;18.234;2022-10-16T10:57:56;101175.53;;;19.40;88.40
21357;BME280;10836;53.068;18.234;2022-10-16T11:06:11;101192.69;;;19.51;88.41
21357;BME280;10836;53.068;18.234;2022-10-16T11:09:00;101188.78;;;19.52;88.03
21357;BME280;10836;53.068;18.234;2022-10-16T11:11:35;101191.75;;;19.64;87.82
21357;BME280;10836;53.068;18.234;2022-10-16T11:14:45;101186.84;;;19.61;86.89
21357;BME280;10836;53.068;18.234;2022-10-16T11:17:31;101185.97;;;18.95;89.75
21357;BME280;10836;53.068;18.234;2022-10-16T11:20:17;101190.63;;;18.64;91.51
21357;BME280;10836;53.068;18.234;2022-10-16T11:22:50;101194.16;;;18.55;93.27
21357;BME280;10836;53.068;18.234;2022-10-16T11:25:22;101196.03;;;18.69;92.59
21357;BME280;10836;53.068;18.234;2022-10-16T11:30:27;101198.34;;;19.06;91.72
21357;BME280;10836;53.068;18.234;2022-10-16T11:38:36;101186.44;;;19.37;87.47
21357;BME280;10836;53.068;18.234;2022-10-16T11:41:22;101191.50;;;18.95;89.45
21357;BME280;10836;53.068;18.234;2022-10-16T11:44:23;101183.22;;;18.73;91.22
21357;BME280;10836;53.068;18.234;2022-10-16T11:50:20;101187.28;;;18.75;92.19
21357;BME280;10836;53.068;18.234;2022-10-16T11:55:40;101189.75;;;18.77;92.06
21357;BME280;10836;53.068;18.234;2022-10-16T11:58:26;101201.09;;;18.98;91.63
21357;BME280;10836;53.068;18.234;2022-10-16T12:04:10;101198.66;;;19.36;89.64
21357;BME280;10836;53.068;18.234;2022-10-16T12:06:55;101194.66;;;19.59;89.11
21357;BME280;10836;53.068;18.234;2022-10-16T12:09:27;101197.97;;;19.78;87.96
21357;BME280;10836;53.068;18.234;2022-10-16T12:11:55;101187.00;;;19.16;90.16
21357;BME280;10836;53.068;18.234;2022-10-16T12:17:25;101194.50;;;19.16;91.22
21357;BME280;10836;53.068;18.234;2022-10-16T12:20:25;101187.72;;;19.31;91.39
21357;BME280;10836;53.068;18.234;2022-10-16T12:22:57;101189.34;;;19.32;90.63
21357;BME280;10836;53.068;18.234;2022-10-16T12:25:30;101199.91;;;19.21;90.33
21357;BME280;10836;53.068;18.234;2022-10-16T12:28:04;101200.72;;;19.21;90.49
21357;BME280;10836;53.068;18.234;2022-10-16T12:30:35;101203.75;;;19.11;91.16
21357;BME280;10836;53.068;18.234;2022-10-16T12:33:05;101204.84;;;19.33;90.96
21357;BME280;10836;53.068;18.234;2022-10-16T12:35:35;101213.00;;;18.98;92.11
21357;BME280;10836;53.068;18.234;2022-10-16T12:38:17;101205.81;;;18.97;92.81
21357;BME280;10836;53.068;18.234;2022-10-16T12:40:53;101209.28;;;19.03;91.41
21357;BME280;10836;53.068;18.234;2022-10-16T12:43:38;101213.00;;;18.98;92.30
21357;BME280;10836;53.068;18.234;2022-10-16T12:46:22;101213.25;;;18.88;92.53
21357;BME280;10836;53.068;18.234;2022-10-16T12:48:49;101219.81;;;18.70;93.92
21357;BME280;10836;53.068;18.234;2022-10-16T12:54:03;101220.13;;;18.68;94.48
21357;BME280;10836;53.068;18.234;2022-10-16T12:56:46;101213.00;;;18.53;96.35
21357;BME280;10836;53.068;18.234;2022-10-16T12:59:38;101218.81;;;18.66;95.43
21357;BME280;10836;53.068;18.234;2022-10-16T13:05:05;101206.22;;;18.59;93.97
21357;BME280;10836;53.068;18.234;2022-10-16T13:13:09;101217.47;;;18.63;93.04
21357;BME280;10836;53.068;18.234;2022-10-16T13:15:54;101222.06;;;18.68;93.94
21357;BME280;10836;53.068;18.234;2022-10-16T13:18:38;101226.03;;;18.75;93.55
21357;BME280;10836;53.068;18.234;2022-10-16T13:21:35;101228.09;;;18.47;95.17
21357;BME280;10836;53.068;18.234;2022-10-16T13:27:14;101222.81;;;18.82;93.13
21357;BME280;10836;53.068;18.234;2022-10-16T13:29:45;101226.53;;;18.77;94.29
21357;BME280;10836;53.068;18.234;2022-10-16T13:32:19;101236.66;;;18.82;93.07
21357;BME280;10836;53.068;18.234;2022-10-16T13:34:48;101242.50;;;19.03;92.07
21357;BME280;10836;53.068;18.234;2022-10-16T13:37:21;101240.09;;;19.18;92.02
21357;BME280;10836;53.068;18.234;2022-10-16T13:39:48;101239.75;;;19.11;92.01
21357;BME280;10836;53.068;18.234;2022-10-16T13:42:28;101245.25;;;19.34;90.77
21357;BME280;10836;53.068;18.234;2022-10-16T13:44:56;101241.69;;;19.81;87.39
21357;BME280;10836;53.068;18.234;2022-10-16T13:47:25;101248.34;;;19.72;87.98
21357;BME280;10836;53.068;18.234;2022-10-16T13:50:05;101248.81;;;19.65;88.51
21357;BME280;10836;53.068;18.234;2022-10-16T13:52:33;101251.47;;;19.39;90.05
21357;BME280;10836;53.068;18.234;2022-10-16T13:55:00;101243.75;;;19.27;89.64
21357;BME280;10836;53.068;18.234;2022-10-16T13:57:28;101248.66;;;19.31;90.61
21357;BME280;10836;53.068;18.234;2022-10-16T13:59:55;101253.38;;;19.30;90.39
21357;BME280;10836;53.068;18.234;2022-10-16T14:02:25;101256.72;;;19.18;90.79
21357;BME280;10836;53.068;18.234;2022-10-16T14:04:54;101256.91;;;19.22;90.79
21357;BME280;10836;53.068;18.234;2022-10-16T14:07:24;101262.25;;;19.18;91.33
21357;BME280;10836;53.068;18.234;2022-10-16T14:09:53;101263.94;;;19.59;89.44
21357;BME280;10836;53.068;18.234;2022-10-16T14:12:22;101260.94;;;19.86;88.09
21357;BME280;10836;53.068;18.234;2022-10-16T14:14:55;101263.66;;;19.69;88.26